createdAt,value
2023-08-02T00:00:13.843Z,17.74
2023-08-02T00:02:43.967Z,17.73
2023-08-02T00:05:12.158Z,17.72
2023-08-02T00:07:40.160Z,17.68
2023-08-02T00:10:08.713Z,17.68
2023-08-02T00:12:36.732Z,17.68
2023-08-02T00:15:05.107Z,17.68
2023-08-02T00:17:34.628Z,17.65
2023-08-02T00:20:03.652Z,17.66
2023-08-02T00:22:31.562Z,17.64
2023-08-02T00:24:59.493Z,17.65
2023-08-02T00:27:27.794Z,17.62
2023-08-02T00:29:55.812Z,17.59
2023-08-02T00:32:24.681Z,17.60
2023-08-02T00:34:56.022Z,17.59
2023-08-02T00:37:24.626Z,17.61
2023-08-02T00:39:53.726Z,17.63
2023-08-02T00:42:22.599Z,17.62
2023-08-02T00:44:51.001Z,17.63
2023-08-02T00:47:19.390Z,17.65
2023-08-02T00:49:48.187Z,17.65
2023-08-02T00:52:17.676Z,17.66
2023-08-02T00:54:45.748Z,17.68
2023-08-02T00:57:13.774Z,17.68
2023-08-02T00:59:42.626Z,17.69
2023-08-02T01:02:11.279Z,17.69
2023-08-02T01:04:40.186Z,17.69
2023-08-02T01:07:17.036Z,17.67
2023-08-02T01:09:53.474Z,17.62
2023-08-02T01:12:24.149Z,17.59
2023-08-02T01:15:01.837Z,17.56
2023-08-02T01:17:30.763Z,17.47
2023-08-02T01:20:05.034Z,17.47
2023-08-02T01:22:33.318Z,17.50
2023-08-02T01:25:01.837Z,17.51
2023-08-02T01:27:36.592Z,17.51
2023-08-02T01:30:08.599Z,17.51
2023-08-02T01:32:37.115Z,17.53
2023-08-02T01:35:08.499Z,17.52
2023-08-02T01:37:36.898Z,17.54
2023-08-02T01:40:05.052Z,17.53
2023-08-02T01:42:33.420Z,17.49
2023-08-02T01:45:01.454Z,17.48
2023-08-02T01:47:29.556Z,17.47
2023-08-02T01:49:57.606Z,17.43
2023-08-02T01:52:27.144Z,17.40
2023-08-02T01:54:55.233Z,17.40
2023-08-02T01:57:23.258Z,17.42
2023-08-02T01:59:51.501Z,17.43
2023-08-02T02:02:19.504Z,17.46
2023-08-02T02:04:47.616Z,17.47
2023-08-02T02:07:15.634Z,17.46
2023-08-02T02:09:45.047Z,17.45
2023-08-02T02:12:13.057Z,17.45
2023-08-02T02:14:41.074Z,17.43
2023-08-02T02:17:09.196Z,17.43
2023-08-02T02:19:40.923Z,17.41
2023-08-02T02:22:09.036Z,17.41
2023-08-02T02:24:36.996Z,17.43
2023-08-02T02:27:07.332Z,17.43
2023-08-02T02:29:35.373Z,17.40
2023-08-02T02:32:04.174Z,17.40
2023-08-02T02:34:32.454Z,17.40
2023-08-02T02:37:00.495Z,17.40
2023-08-02T02:39:29.079Z,17.38
2023-08-02T02:41:57.109Z,17.34
2023-08-02T02:44:40.613Z,17.36
2023-08-02T02:47:08.534Z,17.38
2023-08-02T02:49:36.506Z,17.35
2023-08-02T02:52:05.079Z,17.35
2023-08-02T02:54:33.044Z,17.33
2023-08-02T02:57:01.925Z,17.32
2023-08-02T02:59:31.359Z,17.28
2023-08-02T03:01:59.404Z,17.24
2023-08-02T03:04:27.397Z,17.18
2023-08-02T03:06:56.042Z,17.13
2023-08-02T03:09:25.280Z,17.05
2023-08-02T03:11:53.411Z,17.02
2023-08-02T03:14:21.370Z,17.01
2023-08-02T03:16:50.761Z,16.95
2023-08-02T03:19:18.742Z,16.92
2023-08-02T03:21:46.709Z,16.96
2023-08-02T03:24:14.737Z,16.90
2023-08-02T03:26:42.910Z,16.91
2023-08-02T03:29:11.219Z,16.85
2023-08-02T03:31:39.241Z,16.78
2023-08-02T03:34:08.568Z,16.76
2023-08-02T03:36:37.477Z,16.71
2023-08-02T03:39:05.600Z,16.69
2023-08-02T03:41:34.252Z,16.68
2023-08-02T03:44:02.210Z,16.68
2023-08-02T03:46:31.912Z,16.67
2023-08-02T03:49:02.057Z,16.65
2023-08-02T03:51:31.454Z,16.65
2023-08-02T03:53:59.511Z,16.64
2023-08-02T03:56:27.600Z,16.63
2023-08-02T03:58:55.536Z,16.63
2023-08-02T04:01:23.581Z,16.63
2023-08-02T04:03:51.669Z,16.64
2023-08-02T04:06:19.857Z,16.62
2023-08-02T04:08:49.221Z,16.63
2023-08-02T04:11:17.172Z,16.66
2023-08-02T04:13:45.225Z,16.69
2023-08-02T04:16:15.663Z,16.68
2023-08-02T04:18:44.003Z,16.67
2023-08-02T04:21:11.880Z,16.68
2023-08-02T04:23:39.878Z,16.72
2023-08-02T04:26:13.142Z,16.75
2023-08-02T04:28:41.118Z,16.77
2023-08-02T04:31:09.174Z,16.79
2023-08-02T04:33:37.210Z,16.82
2023-08-02T04:36:05.736Z,16.86
2023-08-02T04:38:33.762Z,16.90
2023-08-02T04:41:01.814Z,16.96
2023-08-02T04:43:31.232Z,17.01
2023-08-02T04:45:59.328Z,17.06
2023-08-02T04:48:27.319Z,17.12
2023-08-02T04:50:55.277Z,17.18
2023-08-02T04:53:23.227Z,17.24
2023-08-02T04:55:51.231Z,17.29
2023-08-02T04:58:19.146Z,17.33
2023-08-02T05:00:48.669Z,17.39
2023-08-02T05:03:16.697Z,17.44
2023-08-02T05:05:44.619Z,17.49
2023-08-02T05:08:12.668Z,17.54
2023-08-02T05:10:40.755Z,17.60
2023-08-02T05:13:08.829Z,17.64
2023-08-02T05:15:39.834Z,17.67
2023-08-02T05:18:09.445Z,17.70
2023-08-02T05:20:38.105Z,17.74
2023-08-02T05:23:06.114Z,17.77
2023-08-02T05:25:35.927Z,17.84
2023-08-02T05:28:04.828Z,17.87
2023-08-02T05:30:34.107Z,17.93
2023-08-02T05:33:02.226Z,18.00
2023-08-02T05:35:31.675Z,17.99
2023-08-02T05:37:59.634Z,17.96
2023-08-02T05:40:28.142Z,18.00
2023-08-02T05:42:56.240Z,18.00
2023-08-02T05:45:24.218Z,18.04
2023-08-02T05:47:52.268Z,18.08
2023-08-02T05:50:20.683Z,18.15
2023-08-02T05:52:50.236Z,18.16
2023-08-02T05:55:18.788Z,18.20
2023-08-02T05:57:46.774Z,18.26
2023-08-02T06:00:15.347Z,18.33
2023-08-02T06:02:43.559Z,18.45
2023-08-02T06:05:11.604Z,18.54
2023-08-02T06:07:39.676Z,18.60
2023-08-02T06:10:10.023Z,18.66
2023-08-02T06:12:38.009Z,18.71
2023-08-02T06:15:07.239Z,18.80
2023-08-02T06:17:35.266Z,18.84
2023-08-02T06:20:03.417Z,18.91
2023-08-02T06:22:31.418Z,18.97
2023-08-02T06:24:59.386Z,18.95
2023-08-02T06:27:28.767Z,18.99
2023-08-02T06:29:56.846Z,18.98
2023-08-02T06:32:24.928Z,18.95
2023-08-02T06:34:52.959Z,18.99
2023-08-02T06:37:21.003Z,18.98
2023-08-02T06:39:49.087Z,19.02
2023-08-02T06:42:16.982Z,19.02
2023-08-02T06:44:46.499Z,19.07
2023-08-02T06:47:14.568Z,19.11
2023-08-02T06:49:42.538Z,19.19
2023-08-02T06:52:11.813Z,19.28
2023-08-02T06:54:39.857Z,19.32
2023-08-02T06:57:09.664Z,19.33
2023-08-02T06:59:37.671Z,19.39
2023-08-02T07:02:08.602Z,19.44
2023-08-02T07:04:36.670Z,19.45
2023-08-02T07:07:07.711Z,19.51
2023-08-02T07:09:35.642Z,19.63
2023-08-02T07:12:03.872Z,19.67
2023-08-02T07:14:31.882Z,19.74
2023-08-02T07:16:59.910Z,19.73
2023-08-02T07:19:29.285Z,19.76
2023-08-02T07:21:57.273Z,19.82
2023-08-02T07:24:25.317Z,19.82
2023-08-02T07:26:53.294Z,19.92
2023-08-02T07:29:21.248Z,19.97
2023-08-02T07:31:49.260Z,19.97
2023-08-02T07:34:17.240Z,19.90
2023-08-02T07:36:46.607Z,20.00
2023-08-02T07:39:14.812Z,20.09
2023-08-02T07:41:43.499Z,20.14
2023-08-02T07:44:12.152Z,20.24
2023-08-02T07:46:40.177Z,20.34
2023-08-02T07:49:08.341Z,20.44
2023-08-02T07:51:36.382Z,20.41
2023-08-02T07:54:05.788Z,20.41
2023-08-02T07:56:33.747Z,20.45
2023-08-02T07:59:04.167Z,20.47
2023-08-02T08:01:32.875Z,20.53
2023-08-02T08:04:01.082Z,20.64
2023-08-02T08:06:29.190Z,20.72
2023-08-02T08:08:57.312Z,20.75
2023-08-02T08:11:28.704Z,20.83
2023-08-02T08:13:56.994Z,20.86
2023-08-02T08:16:25.151Z,20.91
2023-08-02T08:18:53.225Z,20.97
2023-08-02T08:21:21.214Z,21.07
2023-08-02T08:23:49.269Z,21.10
2023-08-02T08:26:17.214Z,21.11
2023-08-02T08:28:46.647Z,21.17
2023-08-02T08:31:14.606Z,21.21
2023-08-02T08:33:42.687Z,21.29
2023-08-02T08:36:15.182Z,21.39
2023-08-02T08:38:43.747Z,21.36
2023-08-02T08:41:15.694Z,21.43
2023-08-02T08:43:44.073Z,21.42
2023-08-02T08:46:14.754Z,21.49
2023-08-02T08:48:43.456Z,21.57
2023-08-02T08:51:12.468Z,21.77
2023-08-02T08:53:45.650Z,21.83
2023-08-02T08:56:13.834Z,21.91
2023-08-02T08:58:42.096Z,22.01
2023-08-02T09:01:10.705Z,22.03
2023-08-02T09:03:40.209Z,22.16
2023-08-02T09:06:08.250Z,22.15
2023-08-02T09:08:44.557Z,22.22
2023-08-02T09:11:13.656Z,22.21
2023-08-02T09:13:41.943Z,22.26
2023-08-02T09:16:12.158Z,22.29
2023-08-02T09:18:43.858Z,22.45
2023-08-02T09:21:15.641Z,22.55
2023-08-02T09:23:49.127Z,22.69
2023-08-02T09:26:19.554Z,22.72
2023-08-02T09:29:01.707Z,22.85
2023-08-02T09:31:30.899Z,22.77
2023-08-02T09:34:00.695Z,22.75
2023-08-02T09:36:30.432Z,22.86
2023-08-02T09:38:59.663Z,22.88
2023-08-02T09:43:59.571Z,22.99
2023-08-02T09:46:30.677Z,23.16
2023-08-02T09:49:00.723Z,23.17
2023-08-02T09:51:42.151Z,23.28
2023-08-02T09:54:11.717Z,23.43
2023-08-02T09:56:41.845Z,23.45
2023-08-02T09:59:11.195Z,23.48
2023-08-02T10:01:39.445Z,23.53
2023-08-02T10:04:11.458Z,23.49
2023-08-02T10:06:40.938Z,23.49
2023-08-02T10:09:11.035Z,23.59
2023-08-02T10:11:44.150Z,23.62
2023-08-02T10:14:13.168Z,23.63
2023-08-02T10:16:43.019Z,23.64
2023-08-02T10:19:14.190Z,23.55
2023-08-02T10:21:42.532Z,23.60
2023-08-02T10:24:11.943Z,23.66
2023-08-02T10:26:41.213Z,23.75
2023-08-02T10:29:10.721Z,23.85
2023-08-02T10:31:39.131Z,23.91
2023-08-02T10:34:37.365Z,24.01
2023-08-02T10:37:07.348Z,24.23
2023-08-02T10:39:56.999Z,24.29
2023-08-02T10:42:27.975Z,24.31
2023-08-02T10:45:13.811Z,24.23
2023-08-02T10:47:41.945Z,24.20
2023-08-02T10:50:11.351Z,24.20
2023-08-02T10:52:41.014Z,24.32
2023-08-02T10:55:17.335Z,24.35
2023-08-02T10:58:06.789Z,24.32
2023-08-02T11:00:38.435Z,24.41
2023-08-02T11:03:06.593Z,24.55
2023-08-02T11:05:42.787Z,24.64
2023-08-02T11:08:13.065Z,24.65
2023-08-02T11:10:51.630Z,24.72
2023-08-02T11:13:20.771Z,24.77
2023-08-02T11:15:48.885Z,24.72
2023-08-02T11:18:31.228Z,24.63
2023-08-02T11:21:09.062Z,24.68
2023-08-02T11:23:39.494Z,24.82
2023-08-02T11:26:26.934Z,24.79
2023-08-02T11:28:55.570Z,24.82
2023-08-02T11:31:25.410Z,24.85
2023-08-02T11:33:54.032Z,24.93
2023-08-02T11:36:22.101Z,24.97
2023-08-02T11:38:52.181Z,25.09
2023-08-02T11:41:21.818Z,25.15
2023-08-02T11:43:50.986Z,25.24
2023-08-02T11:46:23.006Z,25.38
2023-08-02T11:48:51.492Z,25.50
2023-08-02T11:51:21.588Z,25.52
2023-08-02T11:53:56.910Z,25.56
2023-08-02T11:56:25.856Z,25.56
2023-08-02T11:58:55.008Z,25.58
2023-08-02T12:01:23.637Z,25.75
2023-08-02T12:03:59.130Z,26.04
2023-08-02T12:06:29.161Z,26.28
2023-08-02T12:09:03.189Z,26.42
2023-08-02T12:11:31.652Z,26.28
2023-08-02T12:14:03.307Z,26.38
2023-08-02T12:16:40.902Z,26.88
2023-08-02T12:19:10.194Z,27.15
2023-08-02T12:21:39.973Z,27.52
2023-08-02T12:24:16.185Z,27.65
2023-08-02T12:26:45.379Z,27.74
2023-08-02T12:29:23.731Z,27.25
2023-08-02T12:31:54.555Z,26.89
2023-08-02T12:34:22.968Z,26.78
2023-08-02T12:36:51.205Z,26.55
2023-08-02T12:39:20.524Z,26.30
2023-08-02T12:41:48.980Z,26.28
2023-08-02T12:44:16.968Z,26.19
2023-08-02T12:46:45.130Z,26.59
2023-08-02T12:49:13.693Z,26.84
2023-08-02T12:51:41.786Z,26.40
2023-08-02T12:54:09.792Z,26.51
2023-08-02T12:56:39.195Z,26.77
2023-08-02T12:59:07.141Z,26.88
2023-08-02T13:01:36.382Z,27.07
2023-08-02T13:04:04.811Z,27.16
2023-08-02T13:06:35.610Z,27.35
2023-08-02T13:09:04.422Z,27.46
2023-08-02T13:11:32.436Z,27.60
2023-08-02T13:14:01.876Z,27.48
2023-08-02T13:16:30.040Z,27.43
2023-08-02T13:18:58.120Z,27.46
2023-08-02T13:21:26.288Z,27.59
2023-08-02T13:23:54.230Z,27.67
2023-08-02T13:26:22.337Z,27.77
2023-08-02T13:28:50.326Z,27.68
2023-08-02T13:31:19.877Z,27.54
2023-08-02T13:33:48.336Z,27.64
2023-08-02T13:36:16.295Z,27.63
2023-08-02T13:38:44.438Z,27.66
2023-08-02T13:41:12.456Z,27.72
2023-08-02T13:43:40.795Z,27.69
2023-08-02T13:46:08.846Z,27.66
2023-08-02T13:48:38.152Z,27.55
2023-08-02T13:51:06.374Z,27.51
2023-08-02T13:53:34.664Z,27.50
2023-08-02T13:56:02.579Z,27.48
2023-08-02T13:58:31.830Z,27.52
2023-08-02T14:00:59.864Z,27.45
2023-08-02T14:03:27.961Z,27.43
2023-08-02T14:05:57.351Z,27.31
2023-08-02T14:08:25.409Z,27.25
2023-08-02T14:10:53.438Z,27.21
2023-08-02T14:13:21.383Z,27.35
2023-08-02T14:15:49.635Z,27.43
2023-08-02T14:18:17.662Z,27.45
2023-08-02T14:20:46.653Z,27.43
2023-08-02T14:23:15.924Z,27.47
2023-08-02T14:25:43.899Z,27.48
2023-08-02T14:28:11.902Z,27.52
2023-08-02T14:30:39.919Z,27.51
2023-08-02T14:33:07.949Z,27.52
2023-08-02T14:35:36.080Z,27.55
2023-08-02T14:38:06.230Z,27.49
2023-08-02T14:40:35.999Z,27.45
2023-08-02T14:45:49.400Z,27.38
2023-08-02T14:48:17.405Z,27.41
2023-08-02T14:50:45.374Z,27.56
2023-08-02T14:53:13.308Z,27.54
2023-08-02T14:55:42.608Z,27.55
2023-08-02T14:58:11.981Z,27.53
2023-08-02T15:00:41.343Z,27.60
2023-08-02T15:03:09.437Z,27.61
2023-08-02T15:05:41.919Z,27.61
2023-08-02T15:08:10.611Z,27.45
2023-08-02T15:10:38.696Z,27.44
2023-08-02T15:13:08.068Z,27.51
2023-08-02T15:15:36.054Z,27.47
2023-08-02T15:18:04.168Z,27.43
2023-08-02T15:20:32.348Z,27.56
2023-08-02T15:23:00.281Z,27.54
2023-08-02T15:25:28.323Z,27.44
2023-08-02T15:28:04.910Z,27.43
2023-08-02T15:30:34.168Z,27.32
2023-08-02T15:33:02.156Z,27.30
2023-08-02T15:35:30.306Z,27.28
2023-08-02T15:40:43.799Z,27.19
2023-08-02T15:43:11.805Z,27.18
2023-08-02T15:45:41.136Z,27.17
2023-08-02T15:48:09.223Z,27.14
2023-08-02T15:50:37.599Z,27.10
2023-08-02T15:53:05.843Z,26.97
2023-08-02T15:55:33.863Z,26.94
2023-08-02T15:58:02.034Z,26.73
2023-08-02T16:00:30.054Z,26.74
2023-08-02T16:03:01.212Z,26.71
2023-08-02T16:05:29.455Z,26.77
2023-08-02T16:07:57.588Z,26.84
2023-08-02T16:10:25.934Z,26.85
2023-08-02T16:12:56.036Z,26.91
2023-08-02T16:15:24.720Z,26.91
2023-08-02T16:17:54.048Z,26.86
2023-08-02T16:20:25.211Z,26.83
2023-08-02T16:22:56.660Z,26.79
2023-08-02T16:25:27.282Z,26.83
2023-08-02T16:27:56.494Z,26.75
2023-08-02T16:30:26.098Z,26.65
2023-08-02T16:32:55.689Z,26.58
2023-08-02T16:35:25.099Z,26.56
2023-08-02T16:37:54.832Z,26.55
2023-08-02T16:40:23.672Z,26.56
2023-08-02T16:42:52.582Z,26.52
2023-08-02T16:45:21.205Z,26.52
2023-08-02T16:47:50.038Z,26.46
2023-08-02T16:50:18.368Z,26.47
2023-08-02T16:52:49.071Z,26.45
2023-08-02T16:55:17.766Z,26.47
2023-08-02T16:57:47.478Z,26.45
2023-08-02T17:00:17.792Z,26.41
2023-08-02T17:02:45.896Z,26.36
2023-08-02T17:05:14.933Z,26.32
2023-08-02T17:07:46.891Z,26.28
2023-08-02T17:10:17.902Z,26.29
2023-08-02T17:12:46.972Z,26.28
2023-08-02T17:15:16.272Z,26.23
2023-08-02T17:17:47.023Z,26.21
2023-08-02T17:20:17.004Z,26.19
2023-08-02T17:22:46.192Z,26.17
2023-08-02T17:25:17.222Z,26.19
2023-08-02T17:27:46.671Z,26.13
2023-08-02T17:30:16.124Z,26.13
2023-08-02T17:32:46.385Z,26.14
2023-08-02T17:35:15.251Z,26.08
2023-08-02T17:37:44.430Z,25.98
2023-08-02T17:40:13.584Z,25.95
2023-08-02T17:42:48.460Z,25.89
2023-08-02T17:45:17.404Z,25.89
2023-08-02T17:47:46.172Z,25.83
2023-08-02T17:50:14.708Z,25.79
2023-08-02T17:52:43.557Z,25.77
2023-08-02T17:55:12.808Z,25.73
2023-08-02T17:57:44.390Z,25.74
2023-08-02T18:00:15.054Z,25.71
2023-08-02T18:02:43.100Z,25.67
2023-08-02T18:05:11.208Z,25.64
2023-08-02T18:07:40.141Z,25.61
2023-08-02T18:10:10.196Z,25.60
2023-08-02T18:12:39.029Z,25.53
2023-08-02T18:15:10.619Z,25.49
2023-08-02T18:17:40.118Z,25.43
2023-08-02T18:20:09.826Z,25.40
2023-08-02T18:22:42.788Z,25.38
2023-08-02T18:25:15.090Z,25.36
2023-08-02T18:27:44.354Z,25.33
2023-08-02T18:30:14.704Z,25.30
2023-08-02T18:32:43.388Z,25.26
2023-08-02T18:35:13.066Z,25.26
2023-08-02T18:37:42.595Z,25.24
2023-08-02T18:40:12.283Z,25.15
2023-08-02T18:42:40.930Z,25.12
2023-08-02T18:45:10.243Z,25.11
2023-08-02T18:47:40.666Z,25.08
2023-08-02T18:50:11.008Z,25.04
2023-08-02T18:52:40.162Z,25.01
2023-08-02T18:55:11.292Z,24.98
2023-08-02T18:57:39.377Z,24.95
2023-08-02T19:00:10.191Z,24.94
2023-08-02T19:02:40.340Z,24.90
2023-08-02T19:05:14.462Z,24.89
2023-08-02T19:07:45.891Z,24.85
2023-08-02T19:10:14.691Z,24.79
2023-08-02T19:12:42.999Z,24.73
2023-08-02T19:15:17.835Z,24.71
2023-08-02T19:17:48.479Z,24.68
2023-08-02T19:20:18.932Z,24.67
2023-08-02T19:22:49.072Z,24.63
2023-08-02T19:25:17.643Z,24.61
2023-08-02T19:27:47.326Z,24.58
2023-08-02T19:30:26.400Z,24.54
2023-08-02T19:32:57.138Z,24.48
2023-08-02T19:35:29.676Z,24.43
2023-08-02T19:37:57.685Z,24.38
2023-08-02T19:40:28.108Z,24.33
2023-08-02T19:42:58.169Z,24.30
2023-08-02T19:45:27.553Z,24.27
2023-08-02T19:48:00.642Z,24.23
2023-08-02T19:50:29.482Z,24.18
2023-08-02T19:52:58.172Z,24.09
2023-08-02T19:55:26.214Z,24.00
2023-08-02T19:57:54.513Z,23.93
2023-08-02T20:00:24.159Z,23.85
2023-08-02T20:02:52.981Z,23.78
2023-08-02T20:05:52.673Z,23.72
2023-08-02T20:08:34.638Z,23.70
2023-08-02T20:11:07.658Z,23.66
2023-08-02T20:13:38.101Z,23.60
2023-08-02T20:16:09.340Z,23.57
2023-08-02T20:18:39.767Z,23.54
2023-08-02T20:21:21.380Z,23.49
2023-08-02T20:23:57.871Z,23.40
2023-08-02T20:26:27.929Z,23.37
2023-08-02T20:28:57.850Z,23.32
2023-08-02T20:31:29.038Z,23.27
2023-08-02T20:33:58.848Z,23.22
2023-08-02T20:36:28.786Z,23.16
2023-08-02T20:38:58.313Z,23.12
2023-08-02T20:41:28.462Z,23.10
2023-08-02T20:43:58.400Z,23.10
2023-08-02T20:46:28.823Z,23.07
2023-08-02T20:48:59.070Z,23.06
2023-08-02T20:51:39.059Z,23.02
2023-08-02T20:54:09.334Z,22.99
2023-08-02T20:56:37.654Z,22.95
2023-08-02T20:59:11.377Z,22.90
2023-08-02T21:01:44.557Z,22.85
2023-08-02T21:04:14.056Z,22.83
2023-08-02T21:06:57.205Z,22.79
2023-08-02T21:09:29.622Z,22.75
2023-08-02T21:11:57.761Z,22.72
2023-08-02T21:14:26.828Z,22.69
2023-08-02T21:16:57.616Z,22.67
2023-08-02T21:19:27.749Z,22.66
2023-08-02T21:21:58.459Z,22.64
2023-08-02T21:24:28.036Z,22.61
2023-08-02T21:26:56.279Z,22.57
2023-08-02T21:29:24.314Z,22.58
2023-08-02T21:31:53.370Z,22.54
2023-08-02T21:34:21.665Z,22.49
2023-08-02T21:36:49.699Z,22.47
2023-08-02T21:39:19.808Z,22.45
2023-08-02T21:41:48.020Z,22.48
2023-08-02T21:44:15.993Z,22.48
2023-08-02T21:46:45.855Z,22.47
2023-08-02T21:49:14.302Z,22.45
2023-08-02T21:51:42.633Z,22.41
2023-08-02T21:54:10.886Z,22.37
2023-08-02T21:56:40.233Z,22.35
2023-08-02T22:02:05.938Z,22.28
2023-08-02T22:04:34.054Z,22.25
2023-08-02T22:07:02.014Z,22.22
2023-08-02T22:09:30.121Z,22.19
2023-08-02T22:11:59.637Z,22.19
2023-08-02T22:14:30.480Z,22.22
2023-08-02T22:16:58.478Z,22.27
2023-08-02T22:19:26.736Z,22.36
2023-08-02T22:21:55.551Z,22.32
2023-08-02T22:24:23.520Z,22.33
2023-08-02T22:26:51.583Z,22.30
2023-08-02T22:29:20.964Z,22.28
2023-08-02T22:31:49.007Z,22.25
2023-08-02T22:34:18.895Z,22.24
2023-08-02T22:36:46.917Z,22.17
2023-08-02T22:39:14.905Z,22.14
2023-08-02T22:41:43.027Z,22.13
2023-08-02T22:44:11.140Z,22.13
2023-08-02T22:46:40.520Z,22.08
2023-08-02T22:51:39.434Z,21.95
2023-08-02T22:54:07.539Z,21.92
2023-08-02T22:56:35.528Z,21.91
2023-08-02T22:59:03.468Z,21.89
2023-08-02T23:01:34.601Z,21.91
2023-08-02T23:04:04.594Z,21.89
2023-08-02T23:06:32.778Z,21.85
2023-08-02T23:09:01.580Z,21.86
2023-08-02T23:11:31.171Z,21.83
2023-08-02T23:13:59.214Z,21.77
2023-08-02T23:16:27.464Z,21.76
2023-08-02T23:18:58.592Z,21.72
2023-08-02T23:21:32.312Z,21.69
2023-08-02T23:24:00.450Z,21.61
2023-08-02T23:26:28.763Z,21.57
2023-08-02T23:29:01.000Z,21.53
2023-08-02T23:31:29.884Z,21.51
2023-08-02T23:33:58.140Z,21.53
2023-08-02T23:36:27.574Z,21.51
2023-08-02T23:38:55.595Z,21.47
2023-08-02T23:41:23.600Z,21.47
2023-08-02T23:43:51.606Z,21.45
2023-08-02T23:46:19.548Z,21.45
2023-08-02T23:48:47.524Z,21.40
2023-08-02T23:51:16.673Z,21.37
2023-08-02T23:53:46.098Z,21.34
2023-08-02T23:56:13.990Z,21.33
2023-08-02T23:58:41.981Z,21.30
